Latest Weather Observations for Hobart Airport

IDT60801

Issued at 11:31 am EST Tuesday 4 August 2015 (issued every 30 minutes, with the page automatically refreshed every 10 minutes)

About weather observations | Map of weather stations | Latest weather observations for TAS | Other Formats
Station Details ID: 094008 Name: HOBART AIRPORT Lat: -42.83 Lon: 147.50 Height: 4.0 m
Data from the previous 72 hours. | See also: Recent months at Hobart Airport
Date/Time
EST
Temp
°C
App
Temp
°C
Dew
Point
Rel
Hum
%
Delta-T
°C
Wind Press
QNH
hPa
Press
MSL
hPa
Rain
since 9 am
mm
Dir
 
Spd
km/h
Gust
km/h
Spd
kts
Gust
kts
04/11:00am 8.5 -0.1 0.2 56 3.3 NNW 35 48 19 26 1008.7 1008.7 0.0
04/10:30am 8.2 -0.4 0.1 56 3.2 NNW 35 52 19 28 1008.8 1008.8 0.0
04/10:00am 7.3 -0.8 -0.1 59 2.9 NNW 32 50 17 27 1009.5 1009.5 0.0
04/09:30am 6.5 -0.1 -0.6 60 2.7 NNW 24 37 13 20 1010.4 1010.4 0.0
04/09:00am 6.3 0.4 -0.8 60 2.7 NNW 20 32 11 17 1011.3 1011.3 3.6
04/08:30am 6.2 -0.9 -1.3 58 2.8 NNW 26 37 14 20 1011.6 1011.6 3.6
04/08:00am 5.7 -2.1 -1.0 62 2.5 NW 30 41 16 22 1011.8 1011.8 3.6
04/07:30am 5.6 -1.9 -1.4 60 2.6 NW 28 35 15 19 1012.0 1012.0 3.6
04/07:00am 5.4 0.0 -1.7 60 2.6 NNW 17 28 9 15 1012.2 1012.2 3.6
04/06:30am 4.7 -0.7 -1.3 65 2.2 NNW 17 28 9 15 1012.6 1012.6 3.6
04/06:00am 5.0 -0.9 -2.2 59 2.6 N 19 28 10 15 1012.9 1012.9 3.6
04/05:30am 4.6 -1.8 -1.7 63 2.3 NNW 22 35 12 19 1013.1 1013.1 3.6
04/05:00am 4.5 -1.0 -1.9 63 2.3 NNW 17 26 9 14 1013.2 1013.2 3.6
04/04:30am 4.5 -1.5 -1.9 63 2.3 NNW 20 32 11 17 1013.5 1013.5 3.6
04/04:00am 4.3 -1.2 -1.8 64 2.2 NNW 17 26 9 14 1013.7 1013.7 3.6
04/03:30am 4.2 -1.7 -2.3 62 2.3 NNW 19 30 10 16 1013.8 1013.8 3.6
04/03:00am 3.8 -1.6 -1.5 68 1.9 NNW 17 24 9 13 1014.4 1014.4 3.6
04/02:30am 2.3 -1.9 -0.7 80 1.1 N 11 15 6 8 1015.2 1015.2 3.6
04/02:00am 2.5 -2.0 -0.5 80 1.1 N 13 17 7 9 1015.5 1015.5 3.6
04/01:30am 2.4 -2.2 -0.9 79 1.2 N 13 19 7 10 1015.9 1015.9 3.6
04/01:00am 4.0 -0.2 -0.9 70 1.8 N 11 17 6 9 1016.0 1016.0 3.6
04/12:30am 3.4 -1.6 -1.3 71 1.7 NNW 15 20 8 11 1016.4 1016.5 3.6
04/12:00am 3.6 -1.0 -0.8 73 1.6 NNW 13 19 7 10 1016.6 1016.7 3.6
 
Date/Time
EST
Temp
°C
App
Temp
°C
Dew
Point
Rel
Hum
%
Delta-T
°C
Wind Press
QNH
hPa
Press
MSL
hPa
Rain
since 9 am
mm
Dir
 
Spd
km/h
Gust
km/h
Spd
kts
Gust
kts
03/11:30pm 3.0 -1.6 -1.2 74 1.5 NNW 13 17 7 9 1016.7 1016.8 3.6
03/11:00pm 3.3 -1.9 -0.2 78 1.3 NW 17 19 9 10 1016.7 1016.8 3.6
03/10:30pm 3.5 -1.8 -0.3 76 1.4 NNW 17 26 9 14 1016.7 1016.8 3.6
03/10:00pm 3.9 -2.3 -0.4 73 1.6 NW 22 32 12 17 1016.5 1016.6 3.6
03/09:30pm 3.8 -0.7 -0.2 75 1.5 NNW 13 24 7 13 1016.3 1016.4 3.6
03/09:00pm 4.4 -0.2 -0.7 69 1.9 NW 13 17 7 9 1016.2 1016.3 3.6
03/08:30pm 5.3 -1.4 -1.2 63 2.4 W 24 32 13 17 1016.0 1016.0 3.6
03/08:00pm 5.2 -0.7 -1.0 64 2.3 WSW 20 28 11 15 1015.2 1015.2 3.6
03/07:30pm 5.0 -0.9 -0.9 65 2.2 SW 20 32 11 17 1014.4 1014.4 3.6
03/07:00pm 4.9 -1.7 -0.1 70 1.9 SW 24 33 13 18 1014.3 1014.3 3.6
03/06:30pm 4.6 -0.1 1.0 77 1.4 W 15 30 8 16 1014.2 1014.2 3.6
03/06:00pm 4.5 -1.8 1.4 80 1.2 WSW 24 33 13 18 1013.5 1013.5 3.4
03/05:47pm 4.2 -2.9 1.4 82 1.1 SW 28 43 15 23 1013.1 1013.1 3.4
03/05:30pm 4.5 -3.0 1.4 80 1.2 WSW 30 43 16 23 1012.8 1012.8 2.6
03/05:09pm 5.4 -2.1 1.1 74 1.7 SW 30 48 16 26 1011.8 1011.8 1.6
03/05:00pm 5.2 -2.8 1.4 76 1.5 SW 33 46 18 25 1011.4 1011.4 1.6
03/04:44pm 5.4 -2.4 1.4 75 1.6 SW 32 57 17 31 1011.0 1011.0 1.6
03/04:30pm 5.3 -2.5 1.5 76 1.5 SW 32 43 17 23 1010.4 1010.4 1.0
03/04:06pm 4.7 -3.1 1.4 79 1.3 SW 32 52 17 28 1009.5 1009.5 1.0
03/04:00pm 4.6 -3.5 1.3 79 1.3 SW 33 54 18 29 1009.5 1009.5 1.0
03/03:39pm 5.1 -3.7 1.3 76 1.5 WSW 37 65 20 35 1009.2 1009.2 0.6
03/03:30pm 5.9 -1.3 0.5 68 2.1 W 28 48 15 26 1008.6 1008.6 0.2
03/03:00pm 4.9 -2.2 1.4 78 1.4 W 28 37 15 20 1007.8 1007.8 0.2
03/02:30pm 4.3 -2.3 1.8 84 1.0 WSW 26 46 14 25 1007.2 1007.2 0.0
03/02:21pm 4.2 -2.9 1.4 82 1.1 W 28 46 15 25 1007.0 1007.0 0.0
03/02:12pm 4.9 -2.6 1.1 76 1.5 W 30 39 16 21 1006.7 1006.7 0.0
03/02:00pm 5.3 -2.9 0.1 69 2.0 WSW 33 67 18 36 1006.3 1006.3 0.0
03/01:54pm 5.7 -1.6 -0.3 65 2.3 W 28 52 15 28 1006.4 1006.4 0.0
03/01:30pm 6.2 -1.3 -1.2 59 2.8 WNW 28 35 15 19 1005.3 1005.3 0.0
03/01:00pm 6.8 0.7 -2.4 52 3.4 W 20 32 11 17 1004.9 1004.9 0.0
03/12:30pm 7.0 -1.0 -2.2 52 3.4 WSW 30 43 16 23 1004.1 1004.1 0.0
03/12:00pm 6.1 -1.3 -0.7 62 2.6 NW 28 41 15 22 1003.7 1003.7 0.0
03/11:30am 4.3 -2.5 0.7 77 1.4 NW 26 39 14 21 1003.6 1003.6 0.0
03/11:19am 4.6 -2.0 -0.4 70 1.9 WNW 24 35 13 19 1003.2 1003.2 0.0
03/11:09am 4.4 -3.0 -1.0 68 2.0 WNW 28 35 15 19 1003.4 1003.4 0.0
03/11:00am 4.7 -1.3 -1.2 65 2.2 NW 20 30 11 16 1003.2 1003.2 0.0
03/10:30am 5.6 -1.2 -1.7 59 2.7 WNW 24 32 13 17 1002.3 1002.3 0.0
03/10:00am 5.2 -1.2 -1.6 61 2.5 WNW 22 32 12 17 1001.6 1001.6 0.0
03/09:30am 4.5 -2.9 -0.9 68 2.0 NW 28 33 15 18 1001.4 1001.4 0.0
03/09:00am 3.4 -2.0 -1.3 71 1.7 NNW 17 30 9 16 1000.8 1000.8 3.0
03/08:30am 3.0 -4.9 -1.7 71 1.7 WNW 30 43 16 23 1000.6 1000.6 3.0
03/08:00am 2.1 -3.2 -0.6 82 1.0 NNW 17 26 9 14 1000.1 1000.1 3.0
03/07:30am 1.7 -5.4 -1.4 80 1.1 W 26 43 14 23 999.3 999.3 3.0
03/07:20am 1.6 -5.9 -1.2 82 1.0 NW 28 48 15 26 998.6 998.6 3.0
03/07:00am 1.3 -6.1 -0.6 87 0.7 WNW 28 39 15 21 999.0 999.0 3.0
03/06:49am 1.8 -5.6 -0.7 83 0.9 WNW 28 48 15 26 999.5 999.5 2.8
03/06:44am 1.9 -5.2 -0.9 82 1.0 WNW 26 32 14 17 999.4 999.4 2.8
03/06:30am 1.6 -5.8 -0.6 85 0.8 WNW 28 35 15 19 998.6 998.6 2.8
03/06:14am 1.6 -5.8 -0.6 85 0.8 NW 28 35 15 19 998.1 998.1 2.8
03/06:00am 1.7 -3.6 -0.5 85 0.8 NW 17 22 9 12 997.5 997.5 2.8
03/05:38am 1.8 -5.6 -0.4 85 0.8 WNW 28 35 15 19 998.0 998.0 2.6
03/05:30am 2.0 -5.4 -0.7 82 1.0 NW 28 35 15 19 997.7 997.7 2.6
03/05:00am 2.4 -3.2 -0.3 82 1.0 NW 19 28 10 15 996.9 997.0 2.6
03/04:45am 2.1 -1.9 0.5 89 0.6 WNW 11 13 6 7 996.9 997.0 2.6
03/04:30am 2.5 -2.7 0.4 86 0.8 W 17 26 9 14 997.6 997.6 2.4
03/04:00am 2.8 -3.7 0.4 84 0.9 NW 24 32 13 17 996.4 996.5 2.0
03/03:30am 2.8 -2.4 -0.1 81 1.1 W 17 28 9 15 995.5 995.6 2.0
03/03:00am 3.4 -2.4 -0.3 77 1.4 WNW 20 28 11 15 995.6 995.7 2.0
03/02:30am 3.2 -2.0 0.0 79 1.2 NW 17 26 9 14 995.5 995.6 2.0
03/02:00am 3.1 -2.7 -0.4 78 1.3 NW 20 28 11 15 995.2 995.3 2.0
03/01:30am 3.6 -4.6 0.5 80 1.2 NW 33 43 18 23 994.7 994.8 2.0
03/01:00am 3.4 -3.4 0.8 83 1.0 NW 26 37 14 20 994.6 994.7 2.0
03/12:30am 3.8 -3.4 1.0 82 1.1 NW 28 35 15 19 994.3 994.4 2.0
03/12:00am 4.0 -3.2 0.9 80 1.2 NW 28 35 15 19 995.3 995.4 2.0
 
Date/Time
EST
Temp
°C
App
Temp
°C
Dew
Point
Rel
Hum
%
Delta-T
°C
Wind Press
QNH
hPa
Press
MSL
hPa
Rain
since 9 am
mm
Dir
 
Spd
km/h
Gust
km/h
Spd
kts
Gust
kts
02/11:30pm 3.9 -1.6 0.8 80 1.2 NW 19 30 10 16 994.8 994.9 2.0
02/11:00pm 3.3 -2.3 1.0 85 0.9 NW 20 32 11 17 994.5 994.6 2.0
02/10:30pm 3.5 -1.9 1.2 85 0.9 NNW 19 30 10 16 994.8 994.9 2.0
02/10:24pm 3.4 -3.0 1.1 85 0.9 NW 24 35 13 19 994.9 995.0 2.0
02/10:10pm 3.6 -3.6 1.0 83 1.0 NW 28 35 15 19 995.0 995.1 1.8
02/10:00pm 3.9 -4.6 1.1 82 1.1 NW 35 50 19 27 995.5 995.6 1.2
02/09:36pm 5.2 -3.1 0.0 69 2.0 NNW 33 56 18 30 995.0 995.1 0.4
02/09:30pm 5.1 -3.1 -0.7 66 2.2 NNW 32 44 17 24 994.9 995.0 0.4
02/09:00pm 4.8 -2.2 -0.8 67 2.1 NNW 26 39 14 21 995.0 995.1 0.4
02/08:30pm 4.7 -2.8 -1.5 64 2.3 NW 28 37 15 20 995.3 995.4 0.4
02/08:00pm 4.7 -2.0 -1.2 65 2.2 NW 24 33 13 18 996.3 996.4 0.4
02/07:30pm 4.6 -1.6 -0.4 70 1.9 NW 22 30 12 16 996.3 996.4 0.4
02/07:00pm 4.5 -0.7 -0.2 71 1.8 NNW 17 26 9 14 996.3 996.4 0.4
02/06:30pm 5.2 -2.7 -1.2 63 2.4 NW 30 39 16 21 996.3 996.4 0.4
02/06:00pm 4.8 -1.8 -0.2 70 1.9 NW 24 33 13 18 996.7 996.8 0.4
02/05:30pm 4.9 -0.7 0.0 70 1.9 NW 19 26 10 14 996.3 996.4 0.4
02/05:00pm 5.4 -2.0 -0.6 65 2.3 NW 28 35 15 19 996.0 996.1 0.4
02/04:30pm 6.0 -1.9 -1.5 58 2.8 NW 30 39 16 21 995.6 995.7 0.4
02/04:00pm 6.3 -1.4 -0.4 62 2.6 WNW 30 43 16 23 995.7 995.8 0.4
02/03:30pm 6.3 -1.0 -0.1 63 2.5 WNW 28 35 15 19 995.9 996.0 0.4
02/03:00pm 7.3 0.4 -0.1 59 2.9 WNW 26 35 14 19 995.2 995.3 0.4
02/02:40pm 6.7 -1.6 -0.5 60 2.8 WNW 33 52 18 28 995.1 995.2 0.4
02/02:30pm 6.6 -2.8 -0.3 61 2.7 WNW 39 54 21 29 995.5 995.6 0.4
02/02:00pm 6.5 -1.4 2.1 73 1.8 WNW 33 43 18 23 995.6 995.7 0.4
02/01:30pm 7.6 -0.6 2.6 70 2.1 WNW 35 50 19 27 994.8 994.9 0.2
02/01:00pm 8.1 -2.8 3.7 74 1.9 WNW 50 70 27 38 993.8 993.9 0.2
02/12:47pm 9.7 1.0 2.2 59 3.2 WNW 37 59 20 32 993.5 993.6 0.0
02/12:30pm 11.6 2.0 0.9 48 4.5 WNW 41 70 22 38 993.3 993.4 0.0
02/12:13pm 12.5 3.8 -0.6 40 5.3 NW 35 54 19 29 992.9 993.0 0.0
02/12:00pm 12.8 5.3 -1.2 38 5.7 NNW 28 41 15 22 993.2 993.3 0.0
02/11:30am 12.1 3.4 -0.2 42 5.0 NNW 35 52 19 28 993.9 994.0 0.0
02/11:00am 12.6 4.0 -0.1 41 5.3 NNW 35 56 19 30 994.5 994.6 0.0
02/10:46am 12.3 4.2 -0.6 41 5.2 NNW 32 50 17 27 994.9 995.0 0.0
02/10:30am 11.4 3.5 1.0 49 4.3 NNW 32 44 17 24 995.1 995.2 0.0
02/10:00am 10.5 1.9 0.3 49 4.2 N 35 56 19 30 995.9 996.0 0.0
02/09:30am 9.4 1.2 0.6 54 3.6 N 33 50 18 27 996.5 996.6 0.0
02/09:00am 8.8 -1.0 -0.2 53 3.6 N 41 57 22 31 997.0 997.1 0.0
02/08:30am 7.8 -0.3 -0.3 56 3.2 NNW 32 52 17 28 997.9 997.9 0.0
02/08:00am 6.9 -1.2 -0.3 60 2.8 NNW 32 50 17 27 998.2 998.2 0.0
02/07:53am 6.9 -0.9 -0.6 59 2.9 NNW 30 48 16 26 998.3 998.3 0.0
02/07:30am 6.4 -0.6 -0.6 61 2.7 NNW 26 39 14 21 998.7 998.7 0.0
02/07:00am 6.5 -0.9 -0.5 61 2.7 NNW 28 50 15 27 999.1 999.1 0.0
02/06:56am 6.4 -0.9 -0.3 62 2.6 NNW 28 50 15 27 999.1 999.1 0.0
02/06:30am 6.4 -1.0 -0.6 61 2.7 NNW 28 37 15 20 999.3 999.3 0.0
02/06:16am 6.5 -0.9 -0.8 59 2.8 N 28 46 15 25 999.4 999.4 0.0
02/06:00am 6.3 -0.4 -1.1 59 2.8 N 24 37 13 20 999.7 999.7 0.0
02/05:30am 7.4 0.3 -1.6 53 3.4 N 26 52 14 28 1000.4 1000.4 0.0
02/05:00am 7.2 1.2 -1.8 53 3.4 N 20 33 11 18 1000.8 1000.8 0.0
02/04:30am 8.3 0.4 -1.6 49 3.8 NNW 30 43 16 23 1001.2 1001.2 0.0
02/04:02am 8.3 0.9 -1.0 52 3.6 NNW 28 48 15 26 1001.9 1001.9 0.0
02/04:00am 8.4 0.9 -1.2 51 3.7 NNW 28 44 15 24 1001.9 1001.9 0.0
02/03:41am 8.2 0.7 -1.1 52 3.6 NNW 28 46 15 25 1002.0 1002.0 0.0
02/03:30am 7.8 0.7 -1.0 54 3.4 NNW 26 44 14 24 1002.2 1002.2 0.0
02/03:19am 8.0 0.2 -1.1 52 3.5 NNW 30 48 16 26 1002.3 1002.3 0.0
02/03:00am 8.1 1.0 -1.6 50 3.7 NNW 26 39 14 21 1002.5 1002.5 0.0
02/02:53am 8.0 0.5 -1.4 51 3.6 NNW 28 46 15 25 1002.7 1002.7 0.0
02/02:30am 7.5 0.8 -1.1 54 3.3 NNW 24 35 13 19 1003.3 1003.3 0.0
02/02:00am 7.9 0.4 -1.2 52 3.5 NNW 28 39 15 21 1003.4 1003.4 0.0
02/01:30am 8.0 -0.3 -1.4 51 3.6 NNW 32 46 17 25 1003.5 1003.5 0.0
02/01:00am 7.8 0.3 -1.4 52 3.5 NNW 28 43 15 23 1003.9 1003.9 0.0
02/12:30am 7.5 0.4 -1.1 54 3.3 NNW 26 37 14 20 1004.4 1004.4 0.0
02/12:00am 7.4 1.1 -1.3 54 3.3 NNW 22 39 12 21 1004.7 1004.7 0.0
 
Date/Time
EST
Temp
°C
App
Temp
°C
Dew
Point
Rel
Hum
%
Delta-T
°C
Wind Press
QNH
hPa
Press
MSL
hPa
Rain
since 9 am
mm
Dir
 
Spd
km/h
Gust
km/h
Spd
kts
Gust
kts
01/11:30pm 7.0 1.1 -1.1 56 3.1 NNW 20 37 11 20 1005.1 1005.1 0.0
01/11:00pm 7.0 0.6 -1.5 54 3.2 NNW 22 33 12 18 1005.5 1005.5 0.0
01/10:30pm 6.8 0.4 -1.8 54 3.2 NNW 22 32 12 17 1005.8 1005.8 0.0
01/10:00pm 7.3 0.1 -1.7 53 3.4 NW 26 35 14 19 1006.1 1006.1 0.0
01/09:30pm 6.6 0.6 -1.4 56 3.0 NNW 20 35 11 19 1006.3 1006.3 0.0
01/09:00pm 7.2 0.1 -1.5 54 3.3 NNW 26 37 14 20 1006.4 1006.4 0.0
01/08:30pm 6.4 0.4 -1.3 58 2.9 NNW 20 32 11 17 1006.7 1006.7 0.0
01/08:00pm 6.6 0.5 -2.4 52 3.3 NNW 20 32 11 17 1006.8 1006.8 0.0
01/07:30pm 6.6 0.6 -1.7 55 3.1 N 20 30 11 16 1006.8 1006.8 0.0
01/07:00pm 7.4 1.3 -2.3 50 3.6 N 20 30 11 16 1006.7 1006.7 0.0
01/06:30pm 7.0 1.0 -1.8 53 3.3 N 20 30 11 16 1006.3 1006.3 0.0
01/06:00pm 7.3 1.2 -2.1 51 3.5 N 20 28 11 15 1005.9 1005.9 0.0
01/05:30pm 7.0 2.0 -1.1 56 3.1 NNW 15 26 8 14 1005.6 1005.6 0.0
01/05:00pm 8.0 -0.1 -3.2 45 4.1 WNW 30 39 16 21 1004.8 1004.8 0.0
01/04:30pm 8.3 -0.8 -3.5 43 4.3 WNW 35 46 19 25 1004.6 1004.6 0.0
01/04:04pm 8.7 -0.7 -3.2 43 4.4 WNW 37 56 20 30 1004.8 1004.8 0.0
01/04:00pm 8.8 -0.6 -3.1 43 4.4 WNW 37 52 20 28 1004.8 1004.8 0.0
01/03:30pm 9.4 -0.1 -3.6 40 4.8 WNW 37 48 20 26 1004.4 1004.4 0.0
01/03:03pm 9.5 0.8 -3.5 40 4.8 WNW 33 52 18 28 1004.1 1004.1 0.0
01/03:00pm 9.6 1.1 -3.3 40 4.8 WNW 32 43 17 23 1004.1 1004.1 0.0
01/02:30pm 9.1 0.2 -2.2 45 4.3 WNW 35 44 19 24 1003.8 1003.8 0.0
01/02:07pm 8.7 -0.6 -1.8 47 4.0 WNW 37 56 20 30 1003.9 1003.9 0.0
01/02:00pm 8.5 -0.7 -1.4 50 3.8 WNW 37 48 20 26 1003.9 1003.9 0.0
01/01:30pm 7.0 -2.5 1.9 70 2.1 W 41 52 22 28 1004.3 1004.3 0.0
01/01:02pm 10.4 1.4 -2.7 40 5.0 WNW 35 54 19 29 1003.7 1003.7 0.0
01/01:00pm 10.4 1.7 -3.1 38 5.1 WNW 33 46 18 25 1003.7 1003.7 0.0
01/12:39pm 9.7 1.0 -3.1 40 4.8 WNW 33 52 18 28 1003.1 1003.1 0.0
01/12:30pm 10.0 1.3 -3.8 37 5.1 W 33 48 18 26 1003.1 1003.1 0.0
01/12:03pm 9.9 1.4 -3.2 39 4.9 W 32 54 17 29 1002.9 1002.9 0.0
01/12:00pm 10.1 1.7 -2.5 41 4.8 W 32 41 17 22 1003.0 1003.0 0.0

Other Formats:

Comma delimited format used in spreadsheet applications
http://www.bom.gov.au/fwo/IDT60801/IDT60801.94975.axf

JavaScript Object Notation format (JSON) in row-major order
http://www.bom.gov.au/fwo/IDT60801/IDT60801.94975.json